TimeAKDT,TemperatureF,Dew PointF,Humidity,Sea Level PressureIn,VisibilityMPH,Wind Direction,Wind SpeedMPH,Gust SpeedMPH,PrecipitationIn,Events,Conditions,WindDirDegrees,DateUTC
12:16 AM,44.6,41.0,87,29.89,10.0,Calm,Calm,-,N/A,,Clear,0,2013-05-30 08:16:00
12:36 AM,46.4,42.8,87,29.90,10.0,West,4.6,-,N/A,,Clear,270,2013-05-30 08:36:00
12:56 AM,46.4,42.8,87,29.90,10.0,Calm,Calm,-,N/A,,Clear,0,2013-05-30 08:56:00
1:16 AM,44.6,41.0,87,29.90,10.0,WSW,3.5,-,N/A,,Clear,240,2013-05-30 09:16:00
1:36 AM,46.4,42.8,87,29.90,4.0,Calm,Calm,-,N/A,,Clear,0,2013-05-30 09:36:00
1:56 AM,46.4,42.8,87,29.90,10.0,Calm,Calm,-,N/A,,Clear,0,2013-05-30 09:56:00
2:16 AM,46.4,41.0,81,29.90,10.0,Calm,Calm,-,N/A,,Mostly Cloudy,0,2013-05-30 10:16:00
2:36 AM,46.4,42.8,87,29.90,10.0,Calm,Calm,-,N/A,,Overcast,0,2013-05-30 10:36:00
2:56 AM,44.6,41.0,87,29.91,10.0,SSW,3.5,-,N/A,,Overcast,210,2013-05-30 10:56:00
3:16 AM,46.4,42.8,87,29.91,10.0,NW,3.5,-,N/A,,Overcast,310,2013-05-30 11:16:00
3:36 AM,46.4,42.8,87,29.91,10.0,NW,5.8,-,N/A,,Overcast,310,2013-05-30 11:36:00
3:56 AM,46.4,42.8,87,29.91,10.0,Calm,Calm,-,N/A,,Mostly Cloudy,0,2013-05-30 11:56:00
4:16 AM,46.4,42.8,87,29.92,10.0,Calm,Calm,-,N/A,,Mostly Cloudy,0,2013-05-30 12:16:00
4:36 AM,46.4,41.0,81,29.92,10.0,Calm,Calm,-,N/A,,Overcast,0,2013-05-30 12:36:00
4:56 AM,46.4,42.8,87,29.92,10.0,West,3.5,-,N/A,,Overcast,270,2013-05-30 12:56:00
5:16 AM,48.2,42.8,82,29.93,10.0,Calm,Calm,-,N/A,,Overcast,0,2013-05-30 13:16:00
5:36 AM,48.2,42.8,82,29.93,10.0,Calm,Calm,-,N/A,,Overcast,0,2013-05-30 13:36:00
5:56 AM,46.4,42.8,87,29.93,10.0,Calm,Calm,-,N/A,,Overcast,0,2013-05-30 13:56:00
6:16 AM,48.2,42.8,82,29.94,10.0,Calm,Calm,-,N/A,,Overcast,0,2013-05-30 14:16:00
6:36 AM,48.2,42.8,82,29.94,10.0,Calm,Calm,-,N/A,,Overcast,0,2013-05-30 14:36:00
6:56 AM,48.2,42.8,82,29.94,10.0,Calm,Calm,-,N/A,,Mostly Cloudy,0,2013-05-30 14:56:00
7:16 AM,48.2,44.6,87,29.95,10.0,North,3.5,-,N/A,,Mostly Cloudy,360,2013-05-30 15:16:00
7:36 AM,48.2,42.8,82,29.94,10.0,NW,5.8,-,N/A,,Mostly Cloudy,310,2013-05-30 15:36:00
7:56 AM,48.2,44.6,87,29.95,10.0,NNW,5.8,-,N/A,,Mostly Cloudy,330,2013-05-30 15:56:00
8:16 AM,48.2,44.6,87,29.95,10.0,NNW,5.8,-,N/A,,Clear,330,2013-05-30 16:16:00
8:56 AM,48.2,44.6,87,29.95,10.0,NNW,5.8,-,N/A,,Mostly Cloudy,330,2013-05-30 16:56:00
9:16 AM,50.0,44.6,82,29.95,10.0,NW,6.9,-,N/A,,Mostly Cloudy,320,2013-05-30 17:16:00
9:36 AM,51.8,44.6,76,29.95,10.0,NW,6.9,-,N/A,,Mostly Cloudy,320,2013-05-30 17:36:00
9:56 AM,51.8,46.4,82,29.95,10.0,NNW,6.9,-,N/A,,Mostly Cloudy,330,2013-05-30 17:56:00
10:16 AM,53.6,44.6,72,29.96,10.0,NNW,6.9,-,N/A,,Mostly Cloudy,330,2013-05-30 18:16:00
10:36 AM,55.4,46.4,72,29.96,10.0,NNW,6.9,-,N/A,,Mostly Cloudy,330,2013-05-30 18:36:00
10:56 AM,55.4,46.4,72,29.97,10.0,NW,5.8,-,N/A,,Mostly Cloudy,320,2013-05-30 18:56:00
11:16 AM,57.2,46.4,67,29.97,10.0,WNW,4.6,-,N/A,,Mostly Cloudy,300,2013-05-30 19:16:00
11:36 AM,55.4,46.4,72,29.96,10.0,West,6.9,-,N/A,,Mostly Cloudy,270,2013-05-30 19:36:00
11:56 AM,57.2,46.4,67,29.97,10.0,North,5.8,-,N/A,,Mostly Cloudy,350,2013-05-30 19:56:00
12:16 PM,57.2,46.4,67,29.97,10.0,NNW,3.5,-,N/A,,Mostly Cloudy,340,2013-05-30 20:16:00
12:36 PM,57.2,48.2,72,29.97,10.0,NW,5.8,-,N/A,,Mostly Cloudy,320,2013-05-30 20:36:00
12:56 PM,60.8,48.2,63,29.97,10.0,NNW,6.9,-,N/A,,Mostly Cloudy,330,2013-05-30 20:56:00
1:16 PM,60.8,48.2,63,29.97,10.0,NW,6.9,-,N/A,,Overcast,320,2013-05-30 21:16:00
1:36 PM,59.0,46.4,63,29.97,10.0,NW,9.2,-,N/A,,Overcast,320,2013-05-30 21:36:00
1:56 PM,60.8,46.4,59,29.98,10.0,West,6.9,-,N/A,,Overcast,260,2013-05-30 21:56:00
2:16 PM,59.0,46.4,63,29.98,10.0,West,6.9,-,N/A,,Overcast,260,2013-05-30 22:16:00
2:36 PM,57.2,46.4,67,29.98,10.0,WSW,5.8,-,N/A,,Overcast,240,2013-05-30 22:36:00
2:56 PM,57.2,46.4,67,29.99,10.0,WSW,5.8,-,N/A,,Overcast,240,2013-05-30 22:56:00
3:16 PM,57.2,46.4,67,29.99,10.0,West,6.9,-,N/A,,Overcast,260,2013-05-30 23:16:00
3:36 PM,59.0,46.4,63,29.99,10.0,WSW,5.8,-,N/A,,Overcast,250,2013-05-30 23:36:00
3:56 PM,57.2,46.4,67,29.99,10.0,WSW,5.8,-,N/A,,Overcast,240,2013-05-30 23:56:00
4:16 PM,57.2,46.4,67,30.00,10.0,SW,8.1,-,N/A,,Overcast,230,2013-05-31 00:16:00
4:36 PM,57.2,46.4,67,30.00,10.0,WSW,5.8,-,N/A,,Overcast,240,2013-05-31 00:36:00
4:56 PM,57.2,48.2,72,30.00,10.0,Calm,Calm,-,N/A,,Overcast,0,2013-05-31 00:56:00
5:16 PM,55.4,48.2,77,30.01,10.0,Calm,Calm,-,N/A,,Overcast,0,2013-05-31 01:16:00
5:36 PM,55.4,48.2,77,30.01,10.0,SE,3.5,-,N/A,,Overcast,140,2013-05-31 01:36:00
5:56 PM,53.6,48.2,82,30.01,10.0,Calm,Calm,-,N/A,,Overcast,0,2013-05-31 01:56:00
6:16 PM,53.6,48.2,82,30.02,10.0,East,3.5,-,N/A,,Overcast,100,2013-05-31 02:16:00
6:36 PM,53.6,48.2,82,30.02,10.0,ESE,3.5,-,N/A,,Overcast,120,2013-05-31 02:36:00
6:56 PM,53.6,48.2,82,30.03,10.0,Calm,Calm,-,N/A,,Overcast,0,2013-05-31 02:56:00
7:16 PM,53.6,48.2,82,30.03,10.0,Calm,Calm,-,N/A,,Overcast,0,2013-05-31 03:16:00
7:36 PM,53.6,48.2,82,30.04,10.0,Calm,Calm,-,N/A,,Overcast,0,2013-05-31 03:36:00
7:56 PM,53.6,48.2,82,30.04,10.0,Calm,Calm,-,0.01,,Overcast,0,2013-05-31 03:56:00
8:16 PM,53.6,48.2,82,30.04,10.0,Calm,Calm,-,N/A,,Overcast,0,2013-05-31 04:16:00
8:36 PM,53.6,48.2,82,30.05,10.0,Calm,Calm,-,N/A,,Overcast,0,2013-05-31 04:36:00
8:56 PM,53.6,48.2,82,30.05,10.0,Calm,Calm,-,N/A,,Overcast,0,2013-05-31 04:56:00
9:16 PM,51.8,48.2,88,30.06,10.0,Calm,Calm,-,N/A,,Overcast,0,2013-05-31 05:16:00
9:36 PM,51.8,48.2,88,30.07,10.0,Calm,Calm,-,N/A,,Overcast,0,2013-05-31 05:36:00
9:56 PM,51.8,48.2,88,30.07,6.0,Calm,Calm,-,N/A,,Overcast,0,2013-05-31 05:56:00
10:16 PM,51.8,48.2,88,30.08,6.0,Calm,Calm,-,0.01,,Overcast,0,2013-05-31 06:16:00
10:36 PM,51.8,48.2,88,30.08,6.0,Calm,Calm,-,0.02,,Overcast,0,2013-05-31 06:36:00
10:56 PM,51.8,48.2,88,30.09,6.0,Calm,Calm,-,0.04,,Overcast,0,2013-05-31 06:56:00
11:16 PM,51.8,48.2,88,30.10,4.0,Calm,Calm,-,0.01,,Mostly Cloudy,0,2013-05-31 07:16:00
11:36 PM,51.8,48.2,88,30.10,3.0,WNW,3.5,-,0.03,,Overcast,300,2013-05-31 07:36:00
11:56 PM,51.8,48.2,88,30.11,4.0,SW,4.6,-,0.07,,Overcast,230,2013-05-31 07:56:00